createdAt,value
2023-05-07T00:01:52.885Z,15.62
2023-05-07T00:03:56.303Z,15.58
2023-05-07T00:05:59.753Z,15.55
2023-05-07T00:08:02.894Z,15.55
2023-05-07T00:10:07.568Z,15.49
2023-05-07T00:12:12.293Z,15.48
2023-05-07T00:14:15.483Z,15.46
2023-05-07T00:16:18.704Z,15.43
2023-05-07T00:18:23.664Z,15.41
2023-05-07T00:20:27.494Z,15.39
2023-05-07T00:22:31.254Z,15.37
2023-05-07T00:24:34.407Z,15.36
2023-05-07T00:26:37.637Z,15.31
2023-05-07T00:28:42.253Z,15.29
2023-05-07T00:30:45.534Z,15.29
2023-05-07T00:32:50.103Z,15.27
2023-05-07T00:34:53.438Z,15.24
2023-05-07T00:36:56.455Z,15.20
2023-05-07T00:39:03.151Z,15.17
2023-05-07T00:41:06.593Z,15.17
2023-05-07T00:43:09.930Z,15.15
2023-05-07T00:45:14.453Z,15.13
2023-05-07T00:47:17.771Z,15.09
2023-05-07T00:49:20.944Z,15.08
2023-05-07T00:51:24.184Z,15.05
2023-05-07T00:53:27.698Z,14.97
2023-05-07T00:55:30.948Z,15.09
2023-05-07T00:57:35.643Z,15.20
2023-05-07T00:59:39.058Z,15.12
2023-05-07T01:01:43.846Z,15.15
2023-05-07T01:03:47.696Z,15.16
2023-05-07T01:05:52.215Z,15.17
2023-05-07T01:07:57.062Z,15.18
2023-05-07T01:10:00.798Z,15.19
2023-05-07T01:12:05.845Z,15.14
2023-05-07T01:14:09.661Z,15.05
2023-05-07T01:16:13.220Z,15.01
2023-05-07T01:18:18.593Z,15.01
2023-05-07T01:20:22.641Z,15.00
2023-05-07T01:22:33.208Z,15.04
2023-05-07T01:24:38.821Z,14.97
2023-05-07T01:26:44.823Z,14.96
2023-05-07T01:28:51.327Z,14.91
2023-05-07T01:30:57.649Z,14.87
2023-05-07T01:33:04.967Z,14.84
2023-05-07T01:35:13.653Z,14.78
2023-05-07T01:37:17.473Z,14.73
2023-05-07T01:39:22.526Z,14.73
2023-05-07T01:41:26.685Z,14.71
2023-05-07T01:43:30.773Z,14.71
2023-05-07T01:45:34.814Z,14.69
2023-05-07T01:47:38.847Z,14.65
2023-05-07T01:49:44.273Z,14.62
2023-05-07T01:51:48.480Z,14.65
2023-05-07T01:53:53.136Z,14.65
2023-05-07T01:55:58.903Z,14.62
2023-05-07T01:58:02.697Z,14.57
2023-05-07T02:00:07.805Z,14.57
2023-05-07T02:02:18.947Z,14.56
2023-05-07T02:04:24.322Z,14.56
2023-05-07T02:06:28.567Z,14.56
2023-05-07T02:08:37.164Z,14.55
2023-05-07T02:10:41.405Z,14.53
2023-05-07T02:12:46.478Z,14.53
2023-05-07T02:14:50.316Z,14.54
2023-05-07T02:16:53.961Z,14.55
2023-05-07T02:18:57.732Z,14.54
2023-05-07T02:21:01.353Z,14.52
2023-05-07T02:23:05.085Z,14.53
2023-05-07T02:25:09.393Z,14.52
2023-05-07T02:27:13.081Z,14.50
2023-05-07T02:29:19.064Z,14.48
2023-05-07T02:31:22.784Z,14.47
2023-05-07T02:33:26.685Z,14.42
2023-05-07T02:35:30.826Z,14.35
2023-05-07T02:37:34.400Z,14.33
2023-05-07T02:39:38.436Z,14.33
2023-05-07T02:41:42.191Z,14.31
2023-05-07T02:43:46.161Z,14.30
2023-05-07T02:45:51.487Z,14.28
2023-05-07T02:47:56.201Z,14.25
2023-05-07T02:49:59.815Z,14.22
2023-05-07T02:52:04.783Z,14.19
2023-05-07T02:54:08.460Z,14.16
2023-05-07T02:56:12.243Z,14.13
2023-05-07T02:58:16.510Z,14.10
2023-05-07T03:00:21.253Z,14.09
2023-05-07T03:02:46.160Z,14.07
2023-05-07T03:04:49.884Z,14.05
2023-05-07T03:06:52.935Z,14.05
2023-05-07T03:08:55.968Z,14.05
2023-05-07T03:10:59.033Z,14.03
2023-05-07T03:13:03.696Z,14.03
2023-05-07T03:15:07.701Z,14.01
2023-05-07T03:17:11.031Z,13.99
2023-05-07T03:19:15.421Z,13.99
2023-05-07T03:21:18.621Z,13.95
2023-05-07T03:23:24.087Z,13.93
2023-05-07T03:25:27.942Z,13.92
2023-05-07T03:27:30.996Z,13.91
2023-05-07T03:29:34.143Z,13.91
2023-05-07T03:31:37.264Z,13.91
2023-05-07T03:33:52.569Z,13.88
2023-05-07T03:35:57.045Z,13.87
2023-05-07T03:38:03.340Z,13.83
2023-05-07T03:40:11.766Z,13.81
2023-05-07T03:42:23.064Z,13.80
2023-05-07T03:44:28.336Z,13.79
2023-05-07T03:46:31.593Z,13.79
2023-05-07T03:48:34.742Z,13.78
2023-05-07T03:50:38.990Z,13.76
2023-05-07T03:52:44.569Z,13.75
2023-05-07T03:54:48.133Z,13.73
2023-05-07T03:56:52.355Z,13.71
2023-05-07T03:58:55.576Z,13.68
2023-05-07T04:00:58.782Z,13.65
2023-05-07T04:03:05.572Z,13.60
2023-05-07T04:05:09.525Z,13.60
2023-05-07T04:07:16.091Z,13.62
2023-05-07T04:09:23.022Z,13.64
2023-05-07T04:11:26.147Z,13.66
2023-05-07T04:13:29.576Z,13.69
2023-05-07T04:15:32.806Z,13.71
2023-05-07T04:17:36.082Z,13.74
2023-05-07T04:19:39.563Z,13.75
2023-05-07T04:21:42.870Z,13.74
2023-05-07T04:23:46.293Z,13.73
2023-05-07T04:25:52.401Z,13.76
2023-05-07T04:28:00.312Z,13.78
2023-05-07T04:30:07.720Z,13.82
2023-05-07T04:32:14.901Z,13.83
2023-05-07T04:34:18.909Z,13.86
2023-05-07T04:36:22.460Z,13.90
2023-05-07T04:38:35.144Z,13.90
2023-05-07T04:40:39.974Z,13.87
2023-05-07T04:42:46.638Z,13.84
2023-05-07T04:44:50.118Z,13.91
2023-05-07T04:46:53.514Z,13.92
2023-05-07T04:48:56.768Z,13.96
2023-05-07T04:51:00.374Z,14.00
2023-05-07T04:53:04.039Z,14.05
2023-05-07T04:55:08.096Z,14.10
2023-05-07T04:57:14.619Z,14.12
2023-05-07T04:59:19.722Z,14.12
2023-05-07T05:01:23.490Z,14.16
2023-05-07T05:03:26.825Z,14.22
2023-05-07T05:05:30.194Z,14.29
2023-05-07T05:07:33.647Z,14.36
2023-05-07T05:09:37.128Z,14.45
2023-05-07T05:11:41.110Z,14.52
2023-05-07T05:13:44.238Z,14.61
2023-05-07T05:15:54.591Z,14.69
2023-05-07T05:17:57.877Z,14.77
2023-05-07T05:20:04.832Z,14.84
2023-05-07T05:22:08.124Z,14.87
2023-05-07T05:24:11.287Z,14.90
2023-05-07T05:26:15.491Z,14.98
2023-05-07T05:28:18.589Z,15.05
2023-05-07T05:30:23.246Z,15.06
2023-05-07T05:32:28.060Z,15.08
2023-05-07T05:34:34.141Z,15.12
2023-05-07T05:36:37.565Z,15.11
2023-05-07T05:38:40.977Z,15.17
2023-05-07T05:40:45.168Z,15.18
2023-05-07T05:42:48.413Z,15.33
2023-05-07T05:44:52.353Z,15.62
2023-05-07T05:46:58.611Z,15.91
2023-05-07T05:49:03.190Z,16.24
2023-05-07T05:51:07.879Z,16.53
2023-05-07T05:53:11.280Z,16.80
2023-05-07T05:55:15.276Z,16.99
2023-05-07T05:57:18.569Z,17.32
2023-05-07T05:59:22.447Z,17.63
2023-05-07T06:01:26.044Z,17.96
2023-05-07T06:03:31.090Z,18.33
2023-05-07T06:05:38.617Z,18.59
2023-05-07T06:07:42.297Z,18.87
2023-05-07T06:09:45.766Z,19.12
2023-05-07T06:11:49.338Z,19.33
2023-05-07T06:13:52.419Z,19.36
2023-05-07T06:15:55.771Z,19.46
2023-05-07T06:17:58.899Z,19.62
2023-05-07T06:20:02.106Z,19.60
2023-05-07T06:22:06.625Z,19.75
2023-05-07T06:24:11.394Z,19.95
2023-05-07T06:26:16.040Z,20.14
2023-05-07T06:28:23.116Z,20.32
2023-05-07T06:30:27.748Z,20.60
2023-05-07T06:32:31.982Z,20.68
2023-05-07T06:34:35.230Z,20.90
2023-05-07T06:36:38.492Z,21.16
2023-05-07T06:38:51.907Z,21.42
2023-05-07T06:40:56.919Z,21.61
2023-05-07T06:43:00.240Z,21.62
2023-05-07T06:45:24.944Z,21.63
2023-05-07T06:47:30.159Z,21.67
2023-05-07T06:49:33.587Z,21.69
2023-05-07T06:51:36.646Z,21.73
2023-05-07T06:53:40.558Z,21.76
2023-05-07T06:55:47.808Z,21.85
2023-05-07T06:57:53.112Z,21.78
2023-05-07T06:59:58.162Z,22.08
2023-05-07T07:02:01.351Z,22.44
2023-05-07T07:04:04.864Z,22.39
2023-05-07T07:06:08.567Z,22.08
2023-05-07T07:08:11.913Z,21.90
2023-05-07T07:10:15.737Z,21.92
2023-05-07T07:12:20.316Z,22.04
2023-05-07T07:14:24.052Z,22.00
2023-05-07T07:16:28.939Z,22.08
2023-05-07T07:18:32.310Z,22.18
2023-05-07T07:20:35.895Z,22.36
2023-05-07T07:22:40.055Z,22.76
2023-05-07T07:24:43.724Z,22.94
2023-05-07T07:26:49.569Z,23.24
2023-05-07T07:28:54.553Z,23.53
2023-05-07T07:30:59.211Z,23.79
2023-05-07T07:33:04.301Z,23.87
2023-05-07T07:35:11.376Z,24.09
2023-05-07T07:37:15.656Z,24.21
2023-05-07T07:39:19.208Z,24.37
2023-05-07T07:41:24.388Z,24.41
2023-05-07T07:43:27.839Z,24.23
2023-05-07T07:45:32.906Z,23.89
2023-05-07T07:47:37.445Z,23.56
2023-05-07T07:49:40.643Z,23.35
2023-05-07T07:51:45.905Z,23.40
2023-05-07T07:53:50.278Z,23.55
2023-05-07T07:55:59.197Z,23.91
2023-05-07T07:58:05.653Z,24.20
2023-05-07T08:00:10.527Z,24.54
2023-05-07T08:02:21.454Z,24.84
2023-05-07T08:04:26.424Z,25.13
2023-05-07T08:06:32.030Z,25.15
2023-05-07T08:08:35.089Z,24.99
2023-05-07T08:10:40.135Z,24.79
2023-05-07T08:12:50.706Z,24.57
2023-05-07T08:14:53.996Z,24.34
2023-05-07T08:16:57.348Z,24.08
2023-05-07T08:19:02.097Z,23.86
2023-05-07T08:21:05.972Z,23.74
2023-05-07T08:23:09.658Z,23.65
2023-05-07T08:25:14.914Z,23.55
2023-05-07T08:27:18.191Z,23.45
2023-05-07T08:29:21.224Z,23.40
2023-05-07T08:31:24.576Z,23.41
2023-05-07T08:33:27.823Z,23.50
2023-05-07T08:35:32.388Z,23.78
2023-05-07T08:37:35.601Z,24.03
2023-05-07T08:39:39.122Z,24.18
2023-05-07T08:41:48.124Z,24.01
2023-05-07T08:43:51.990Z,23.82
2023-05-07T08:45:57.044Z,23.58
2023-05-07T08:48:05.797Z,23.58
2023-05-07T08:50:12.928Z,23.73
2023-05-07T08:52:18.223Z,23.96
2023-05-07T08:54:22.781Z,24.11
2023-05-07T08:56:26.115Z,24.07
2023-05-07T08:58:31.044Z,24.09
2023-05-07T09:00:34.782Z,24.26
2023-05-07T09:02:39.181Z,24.53
2023-05-07T09:04:44.931Z,24.68
2023-05-07T09:06:49.091Z,24.77
2023-05-07T09:08:54.521Z,24.65
2023-05-07T09:10:59.985Z,24.53
2023-05-07T09:13:03.210Z,24.40
2023-05-07T09:15:08.270Z,24.35
2023-05-07T09:17:12.011Z,24.33
2023-05-07T09:19:15.273Z,24.34
2023-05-07T09:21:23.822Z,24.42
2023-05-07T09:23:28.395Z,24.45
2023-05-07T09:25:33.758Z,24.49
2023-05-07T09:27:43.746Z,24.54
2023-05-07T09:29:47.073Z,24.73
2023-05-07T09:31:52.077Z,24.97
2023-05-07T09:33:56.975Z,25.22
2023-05-07T09:36:05.073Z,25.38
2023-05-07T09:38:10.156Z,25.37
2023-05-07T09:40:22.912Z,25.38
2023-05-07T09:42:28.388Z,25.30
2023-05-07T09:44:36.125Z,25.27
2023-05-07T09:46:41.575Z,25.39
2023-05-07T09:48:55.044Z,25.52
2023-05-07T09:50:59.844Z,25.42
2023-05-07T09:53:06.929Z,25.30
2023-05-07T09:55:11.547Z,25.21
2023-05-07T09:57:15.836Z,25.29
2023-05-07T09:59:23.985Z,25.41
2023-05-07T10:01:27.692Z,25.39
2023-05-07T10:03:33.352Z,25.44
2023-05-07T10:05:41.375Z,25.54
2023-05-07T10:07:45.547Z,25.60
2023-05-07T10:09:49.130Z,25.50
2023-05-07T10:12:01.684Z,25.42
2023-05-07T10:14:07.497Z,25.49
2023-05-07T10:16:12.747Z,25.58
2023-05-07T10:18:23.574Z,25.75
2023-05-07T10:20:28.304Z,25.83
2023-05-07T10:22:35.069Z,25.96
2023-05-07T10:24:39.279Z,26.08
2023-05-07T10:26:50.807Z,26.08
2023-05-07T10:29:00.414Z,26.28
2023-05-07T10:31:20.874Z,26.44
2023-05-07T10:33:28.496Z,26.29
2023-05-07T10:35:36.962Z,26.08
2023-05-07T10:37:40.594Z,25.99
2023-05-07T10:39:43.767Z,25.86
2023-05-07T10:41:47.277Z,25.68
2023-05-07T10:43:50.391Z,25.71
2023-05-07T10:46:16.490Z,25.82
2023-05-07T10:48:29.411Z,25.87
2023-05-07T10:50:39.383Z,25.97
2023-05-07T10:52:43.243Z,25.87
2023-05-07T10:55:26.589Z,25.86
2023-05-07T10:57:53.095Z,25.97
2023-05-07T11:00:01.976Z,25.93
2023-05-07T11:02:12.180Z,25.91
2023-05-07T11:04:27.674Z,26.00
2023-05-07T11:07:27.976Z,25.79
2023-05-07T11:09:56.976Z,25.87
2023-05-07T11:12:11.741Z,25.93
2023-05-07T11:14:45.950Z,26.07
2023-05-07T11:17:11.946Z,26.19
2023-05-07T11:19:16.243Z,26.22
2023-05-07T11:21:39.344Z,26.28
2023-05-07T11:24:00.913Z,26.19
2023-05-07T11:26:18.132Z,26.08
2023-05-07T11:28:22.059Z,26.00
2023-05-07T11:30:35.660Z,25.94
2023-05-07T11:32:40.108Z,25.85
2023-05-07T11:34:43.352Z,25.70
2023-05-07T11:36:47.936Z,25.62
2023-05-07T11:38:54.283Z,25.49
2023-05-07T11:40:59.994Z,25.41
2023-05-07T11:43:12.694Z,25.37
2023-05-07T11:45:25.582Z,25.32
2023-05-07T11:47:28.630Z,25.30
2023-05-07T11:49:32.392Z,25.27
2023-05-07T11:51:35.629Z,25.22
2023-05-07T11:53:41.844Z,25.15
2023-05-07T11:55:44.981Z,25.08
2023-05-07T11:57:48.132Z,25.02
2023-05-07T11:59:55.387Z,24.94
2023-05-07T12:02:00.249Z,24.87
2023-05-07T12:04:06.300Z,24.83
2023-05-07T12:06:09.955Z,24.85
2023-05-07T12:08:16.900Z,24.83
2023-05-07T12:10:22.461Z,24.88
2023-05-07T12:12:25.986Z,24.82
2023-05-07T12:14:29.993Z,24.83
2023-05-07T12:16:33.213Z,24.83
2023-05-07T12:18:37.887Z,24.85
2023-05-07T12:20:41.513Z,24.89
2023-05-07T12:22:44.908Z,24.87
2023-05-07T12:24:49.197Z,24.78
2023-05-07T12:26:53.863Z,24.76
2023-05-07T12:28:57.168Z,24.69
2023-05-07T12:31:00.511Z,24.61
2023-05-07T12:33:03.746Z,24.51
2023-05-07T12:35:08.919Z,24.42
2023-05-07T12:37:12.302Z,24.40
2023-05-07T12:39:15.698Z,24.36
2023-05-07T12:41:19.354Z,24.31
2023-05-07T12:43:26.319Z,24.30
2023-05-07T12:45:29.485Z,24.27
2023-05-07T12:47:33.406Z,24.23
2023-05-07T12:49:38.671Z,24.20
2023-05-07T12:51:42.007Z,24.17
2023-05-07T12:53:45.554Z,24.13
2023-05-07T12:55:50.218Z,24.11
2023-05-07T12:57:54.241Z,24.08
2023-05-07T13:00:00.168Z,24.02
2023-05-07T13:02:03.511Z,23.96
2023-05-07T13:04:07.012Z,23.90
2023-05-07T13:06:13.288Z,23.85
2023-05-07T13:08:26.253Z,23.73
2023-05-07T13:10:29.741Z,23.56
2023-05-07T13:12:33.025Z,23.54
2023-05-07T13:14:36.423Z,23.50
2023-05-07T13:16:40.915Z,23.49
2023-05-07T13:18:46.547Z,23.42
2023-05-07T13:20:49.962Z,23.40
2023-05-07T13:22:53.078Z,23.40
2023-05-07T13:24:56.245Z,23.37
2023-05-07T13:26:59.568Z,23.32
2023-05-07T13:29:02.726Z,23.26
2023-05-07T13:31:05.853Z,23.18
2023-05-07T13:33:10.565Z,23.10
2023-05-07T13:35:13.845Z,23.01
2023-05-07T13:37:17.111Z,22.92
2023-05-07T13:39:20.226Z,22.83
2023-05-07T13:41:23.335Z,22.74
2023-05-07T13:43:26.820Z,22.64
2023-05-07T13:45:30.615Z,22.57
2023-05-07T13:47:33.941Z,22.46
2023-05-07T13:49:38.591Z,22.36
2023-05-07T13:51:41.825Z,22.29
2023-05-07T13:53:44.991Z,22.23
2023-05-07T13:55:48.425Z,22.11
2023-05-07T13:57:57.172Z,21.54
2023-05-07T14:00:00.361Z,21.30
2023-05-07T14:02:03.436Z,21.29
2023-05-07T14:04:06.683Z,21.27
2023-05-07T14:06:11.072Z,21.20
2023-05-07T14:08:14.970Z,21.12
2023-05-07T14:10:18.257Z,21.03
2023-05-07T14:12:21.574Z,20.94
2023-05-07T14:14:24.688Z,20.92
2023-05-07T14:16:27.770Z,20.80
2023-05-07T14:18:30.983Z,20.69
2023-05-07T14:20:34.019Z,20.62
2023-05-07T14:22:38.583Z,20.50
2023-05-07T14:24:41.709Z,20.42
2023-05-07T14:26:46.214Z,20.36
2023-05-07T14:28:49.330Z,20.33
2023-05-07T14:30:52.468Z,20.29
2023-05-07T14:32:55.869Z,20.22
2023-05-07T14:34:59.039Z,20.20
2023-05-07T14:37:02.544Z,20.16
2023-05-07T14:39:07.075Z,20.13
2023-05-07T14:41:10.467Z,20.10
2023-05-07T14:43:13.768Z,20.04
2023-05-07T14:45:17.051Z,19.99
2023-05-07T14:47:27.609Z,19.95
2023-05-07T14:49:32.896Z,19.90
2023-05-07T14:51:36.010Z,19.86
2023-05-07T14:53:39.170Z,19.81
2023-05-07T14:55:43.990Z,19.77
2023-05-07T14:57:47.184Z,19.68
2023-05-07T14:59:50.316Z,19.53
2023-05-07T15:01:53.590Z,19.47
2023-05-07T15:03:57.196Z,19.44
2023-05-07T15:06:00.563Z,19.40
2023-05-07T15:08:03.667Z,19.26
2023-05-07T15:10:07.989Z,19.24
2023-05-07T15:12:13.142Z,19.26
2023-05-07T15:14:16.204Z,19.29
2023-05-07T15:16:20.439Z,19.30
2023-05-07T15:18:23.627Z,19.29
2023-05-07T15:20:26.764Z,19.29
2023-05-07T15:22:29.943Z,19.30
2023-05-07T15:24:33.501Z,19.24
2023-05-07T15:26:36.600Z,19.08
2023-05-07T15:28:41.368Z,18.91
2023-05-07T15:30:44.623Z,18.91
2023-05-07T15:32:48.531Z,18.95
2023-05-07T15:34:51.540Z,18.90
2023-05-07T15:36:54.413Z,18.81
2023-05-07T15:38:57.371Z,18.75
2023-05-07T15:41:00.614Z,18.66
2023-05-07T15:43:03.786Z,18.70
2023-05-07T15:45:10.877Z,18.77
2023-05-07T15:47:15.196Z,18.81
2023-05-07T15:49:18.551Z,18.80
2023-05-07T15:51:22.818Z,18.87
2023-05-07T15:53:25.960Z,18.89
2023-05-07T15:55:29.114Z,18.94
2023-05-07T15:57:32.498Z,19.00
2023-05-07T15:59:36.348Z,19.03
2023-05-07T16:01:42.481Z,19.05
2023-05-07T16:03:46.450Z,19.07
2023-05-07T16:05:49.811Z,19.10
2023-05-07T16:07:53.010Z,19.11
2023-05-07T16:09:56.112Z,19.14
2023-05-07T16:11:59.236Z,19.17
2023-05-07T16:14:02.487Z,19.17
2023-05-07T16:16:06.577Z,19.20
2023-05-07T16:18:12.175Z,19.21
2023-05-07T16:20:16.824Z,19.23
2023-05-07T16:22:20.290Z,19.26
2023-05-07T16:24:23.354Z,19.25
2023-05-07T16:26:26.881Z,19.27
2023-05-07T16:28:30.253Z,19.27
2023-05-07T16:30:33.491Z,19.25
2023-05-07T16:32:36.908Z,19.26
2023-05-07T16:34:41.616Z,19.23
2023-05-07T16:36:44.755Z,19.18
2023-05-07T16:38:48.105Z,19.13
2023-05-07T16:40:51.292Z,19.10
2023-05-07T16:42:55.701Z,19.11
2023-05-07T16:44:58.862Z,19.10
2023-05-07T16:47:02.001Z,19.10
2023-05-07T16:49:05.073Z,19.08
2023-05-07T16:51:09.624Z,19.08
2023-05-07T16:53:13.062Z,19.07
2023-05-07T16:55:16.333Z,19.08
2023-05-07T16:57:19.442Z,19.06
2023-05-07T16:59:23.230Z,19.05
2023-05-07T17:01:26.398Z,18.99
2023-05-07T17:03:32.073Z,18.99
2023-05-07T17:05:35.317Z,18.99
2023-05-07T17:07:39.813Z,18.98
2023-05-07T17:09:43.544Z,18.88
2023-05-07T17:11:46.689Z,18.83
2023-05-07T17:13:50.412Z,18.77
2023-05-07T17:15:53.506Z,18.75
2023-05-07T17:17:56.732Z,18.72
2023-05-07T17:20:00.113Z,18.69
2023-05-07T17:22:03.393Z,18.62
2023-05-07T17:24:09.678Z,18.61
2023-05-07T17:26:13.816Z,18.62
2023-05-07T17:28:17.031Z,18.63
2023-05-07T17:30:20.287Z,18.61
2023-05-07T17:32:23.406Z,18.61
2023-05-07T17:34:26.675Z,18.60
2023-05-07T17:36:29.792Z,18.59
2023-05-07T17:38:33.163Z,18.60
2023-05-07T17:40:53.859Z,18.56
2023-05-07T17:42:59.451Z,18.53
2023-05-07T17:45:02.803Z,18.52
2023-05-07T17:47:06.922Z,18.53
2023-05-07T17:49:10.078Z,18.50
2023-05-07T17:51:13.255Z,18.50
2023-05-07T17:53:16.395Z,18.45
2023-05-07T17:55:19.733Z,18.44
2023-05-07T17:57:24.265Z,18.43
2023-05-07T17:59:27.504Z,18.43
2023-05-07T18:01:30.937Z,18.41
2023-05-07T18:03:34.982Z,18.44
2023-05-07T18:05:39.601Z,18.44
2023-05-07T18:07:42.991Z,18.43
2023-05-07T18:09:46.213Z,18.44
2023-05-07T18:11:49.349Z,18.43
2023-05-07T18:13:53.915Z,18.39
2023-05-07T18:15:57.308Z,18.38
2023-05-07T18:18:00.849Z,18.36
2023-05-07T18:20:04.200Z,18.36
2023-05-07T18:22:07.479Z,18.35
2023-05-07T18:24:11.104Z,18.36
2023-05-07T18:26:14.303Z,18.35
2023-05-07T18:28:17.388Z,18.32
2023-05-07T18:30:23.271Z,18.26
2023-05-07T18:32:26.540Z,18.19
2023-05-07T18:34:29.824Z,18.14
2023-05-07T18:36:32.921Z,18.13
2023-05-07T18:38:36.114Z,18.12
2023-05-07T18:40:43.803Z,18.12
2023-05-07T18:42:46.885Z,18.12
2023-05-07T18:44:51.347Z,18.12
2023-05-07T18:46:55.826Z,18.11
2023-05-07T18:48:59.253Z,18.11
2023-05-07T18:51:02.360Z,18.10
2023-05-07T18:53:05.576Z,18.11
2023-05-07T18:55:10.749Z,18.12
2023-05-07T18:57:13.871Z,18.09
2023-05-07T18:59:17.377Z,18.05
2023-05-07T19:01:20.475Z,18.01
2023-05-07T19:03:25.012Z,17.98
2023-05-07T19:05:28.124Z,17.97
2023-05-07T19:07:31.801Z,17.96
2023-05-07T19:09:34.909Z,17.96
2023-05-07T19:11:38.052Z,17.95
2023-05-07T19:13:41.252Z,17.96
2023-05-07T19:15:44.740Z,17.93
2023-05-07T19:17:47.978Z,17.93
2023-05-07T19:19:52.591Z,17.91
2023-05-07T19:21:55.804Z,17.91
2023-05-07T19:23:58.924Z,17.91
2023-05-07T19:26:02.366Z,17.89
2023-05-07T19:28:05.574Z,17.88
2023-05-07T19:30:10.128Z,17.88
2023-05-07T19:32:13.325Z,17.88
2023-05-07T19:34:16.414Z,17.86
2023-05-07T19:36:21.492Z,17.83
2023-05-07T19:38:24.682Z,17.80
2023-05-07T19:40:27.895Z,17.75
2023-05-07T19:42:31.206Z,17.72
2023-05-07T19:44:36.857Z,17.69
2023-05-07T19:46:44.673Z,17.68
2023-05-07T19:48:48.114Z,17.63
2023-05-07T19:50:51.413Z,17.59
2023-05-07T19:52:56.032Z,17.56
2023-05-07T19:54:59.276Z,17.54
2023-05-07T19:57:03.242Z,17.56
2023-05-07T19:59:06.341Z,17.56
2023-05-07T20:01:09.533Z,17.56
2023-05-07T20:03:18.494Z,17.48
2023-05-07T20:05:22.332Z,17.46
2023-05-07T20:07:25.596Z,17.46
2023-05-07T20:09:30.283Z,17.46
2023-05-07T20:11:33.895Z,17.45
2023-05-07T20:13:37.183Z,17.45
2023-05-07T20:15:40.695Z,17.46
2023-05-07T20:17:44.490Z,17.46
2023-05-07T20:19:47.776Z,17.47
2023-05-07T20:21:51.016Z,17.46
2023-05-07T20:23:54.519Z,17.46
2023-05-07T20:25:59.521Z,17.46
2023-05-07T20:28:02.918Z,17.46
2023-05-07T20:30:07.259Z,17.46
2023-05-07T20:32:10.454Z,17.46
2023-05-07T20:34:13.614Z,17.44
2023-05-07T20:36:16.860Z,17.41
2023-05-07T20:38:20.470Z,17.40
2023-05-07T20:40:24.155Z,17.40
2023-05-07T20:42:29.560Z,17.38
2023-05-07T20:44:33.964Z,17.37
2023-05-07T20:46:38.431Z,17.37
2023-05-07T20:48:41.956Z,17.36
2023-05-07T20:50:45.376Z,17.36
2023-05-07T20:52:48.657Z,17.35
2023-05-07T20:54:51.996Z,17.31
2023-05-07T20:56:55.238Z,17.24
2023-05-07T20:58:59.829Z,17.18
2023-05-07T21:01:04.989Z,17.13
2023-05-07T21:03:08.479Z,17.12
2023-05-07T21:05:12.033Z,17.13
2023-05-07T21:07:15.251Z,17.11
2023-05-07T21:09:19.301Z,17.11
2023-05-07T21:11:22.781Z,17.10
2023-05-07T21:13:26.489Z,17.10
2023-05-07T21:15:31.446Z,17.10
2023-05-07T21:17:35.340Z,17.12
2023-05-07T21:19:40.352Z,17.13
2023-05-07T21:21:44.232Z,17.11
2023-05-07T21:23:47.697Z,17.11
2023-05-07T21:25:51.897Z,17.11
2023-05-07T21:27:55.296Z,17.12
2023-05-07T21:30:04.109Z,17.13
2023-05-07T21:32:10.104Z,17.13
2023-05-07T21:34:13.230Z,17.12
2023-05-07T21:36:16.441Z,17.11
2023-05-07T21:38:19.850Z,17.12
2023-05-07T21:40:23.009Z,17.12
2023-05-07T21:42:26.712Z,17.13
2023-05-07T21:44:30.133Z,17.14
2023-05-07T21:46:34.107Z,17.18
2023-05-07T21:48:39.417Z,17.16
2023-05-07T21:50:42.483Z,17.16
2023-05-07T21:52:45.702Z,17.16
2023-05-07T21:54:48.812Z,17.15
2023-05-07T21:56:52.098Z,17.16
2023-05-07T21:58:55.284Z,17.15
2023-05-07T22:00:58.457Z,17.12
2023-05-07T22:03:02.100Z,17.12
2023-05-07T22:05:07.391Z,17.11
2023-05-07T22:07:10.678Z,17.11
2023-05-07T22:09:14.073Z,17.09
2023-05-07T22:11:17.234Z,17.08
2023-05-07T22:13:20.715Z,17.06
2023-05-07T22:15:23.907Z,17.06
2023-05-07T22:17:26.956Z,17.09
2023-05-07T22:19:30.049Z,17.08
2023-05-07T22:21:34.737Z,17.08
2023-05-07T22:23:37.790Z,17.08
2023-05-07T22:25:40.848Z,17.08
2023-05-07T22:27:43.918Z,17.08
2023-05-07T22:29:46.975Z,17.07
2023-05-07T22:31:50.239Z,17.07
2023-05-07T22:33:53.323Z,17.07
2023-05-07T22:35:56.354Z,17.06
2023-05-07T22:38:00.767Z,17.04
2023-05-07T22:40:04.315Z,17.02
2023-05-07T22:42:08.394Z,16.98
2023-05-07T22:44:11.406Z,16.94
2023-05-07T22:46:14.748Z,16.93
2023-05-07T22:48:18.493Z,16.93
2023-05-07T22:50:21.595Z,16.93
2023-05-07T22:52:24.685Z,16.91
2023-05-07T22:54:29.175Z,16.90
2023-05-07T22:56:32.229Z,16.89
2023-05-07T22:58:35.431Z,16.86
2023-05-07T23:00:38.948Z,16.86
2023-05-07T23:02:42.043Z,16.84
2023-05-07T23:04:45.121Z,16.84
2023-05-07T23:06:48.191Z,16.84
2023-05-07T23:08:51.195Z,16.85
2023-05-07T23:10:55.646Z,16.84
2023-05-07T23:12:58.795Z,16.87
2023-05-07T23:15:01.886Z,16.88
2023-05-07T23:17:05.028Z,16.87
2023-05-07T23:19:08.120Z,16.85
2023-05-07T23:21:11.231Z,16.79
2023-05-07T23:23:14.276Z,16.76
2023-05-07T23:25:18.257Z,16.72
2023-05-07T23:27:22.656Z,16.71
2023-05-07T23:29:25.718Z,16.69
2023-05-07T23:31:28.894Z,16.69
2023-05-07T23:33:31.988Z,16.71
2023-05-07T23:35:35.191Z,16.70
2023-05-07T23:37:39.107Z,16.71
2023-05-07T23:39:42.125Z,16.72
2023-05-07T23:41:45.299Z,16.72
2023-05-07T23:43:49.683Z,16.73
2023-05-07T23:45:52.913Z,16.74
2023-05-07T23:47:56.066Z,16.72
2023-05-07T23:49:59.100Z,16.73
2023-05-07T23:52:02.178Z,16.74
2023-05-07T23:54:05.317Z,16.75
2023-05-07T23:56:08.373Z,16.76
2023-05-07T23:58:11.382Z,16.78
